createdAt,value
2022-08-20T00:00:14.385Z,6.72
2022-08-20T00:05:21.556Z,7.63
2022-08-20T00:10:24.068Z,7.22
2022-08-20T00:15:30.899Z,7.82
2022-08-20T00:20:36.848Z,6.73
2022-08-20T00:25:41.436Z,7.75
2022-08-20T00:30:45.149Z,7.13
2022-08-20T00:35:52.083Z,7.47
2022-08-20T00:40:57.502Z,7.53
2022-08-20T00:46:03.160Z,7.22
2022-08-20T00:51:11.189Z,7.68
2022-08-20T00:56:13.932Z,8.40
2022-08-20T01:01:16.408Z,7.60
2022-08-20T01:06:18.909Z,8.98
2022-08-20T01:11:23.047Z,7.50
2022-08-20T01:16:31.571Z,7.93
2022-08-20T01:21:34.457Z,6.97
2022-08-20T01:26:40.339Z,6.50
2022-08-20T01:31:43.291Z,6.70
2022-08-20T01:36:51.626Z,6.55
2022-08-20T01:41:57.184Z,6.45
2022-08-20T01:47:11.004Z,5.72
2022-08-20T01:52:29.726Z,6.75
2022-08-20T01:57:32.451Z,5.95
2022-08-20T02:02:34.965Z,6.13
2022-08-20T02:07:37.826Z,5.72
2022-08-20T02:12:40.305Z,5.35
2022-08-20T02:17:43.601Z,5.47
2022-08-20T02:22:53.175Z,6.53
2022-08-20T02:28:02.589Z,6.13
2022-08-20T02:38:10.923Z,5.80
2022-08-20T02:43:15.002Z,6.55
2022-08-20T02:48:21.109Z,5.90
2022-08-20T02:53:28.173Z,6.75
2022-08-20T02:58:30.669Z,4.10
2022-08-20T03:03:33.379Z,6.40
2022-08-20T03:08:36.364Z,6.70
2022-08-20T03:13:38.954Z,6.25
2022-08-20T03:18:45.309Z,6.22
2022-08-20T03:23:47.905Z,6.43
2022-08-20T03:28:50.354Z,8.65
2022-08-20T03:33:53.823Z,8.23
2022-08-20T03:38:58.062Z,7.38
2022-08-20T03:44:00.642Z,10.18
2022-08-20T03:49:03.576Z,9.02
2022-08-20T03:54:06.673Z,9.40
2022-08-20T03:59:09.839Z,10.70
2022-08-20T04:04:12.904Z,9.70
2022-08-20T04:09:15.799Z,9.93
2022-08-20T04:14:19.502Z,11.20
2022-08-20T04:19:23.054Z,11.27
2022-08-20T04:24:31.621Z,8.98
2022-08-20T04:29:35.681Z,8.73
2022-08-20T04:34:38.775Z,10.48
2022-08-20T04:39:41.247Z,10.55
2022-08-20T04:44:43.847Z,11.07
2022-08-20T04:49:46.194Z,10.38
2022-08-20T04:54:48.853Z,8.35
2022-08-20T04:59:53.243Z,10.20
2022-08-20T05:04:57.929Z,11.93
2022-08-20T05:10:04.644Z,11.82
2022-08-20T05:15:07.408Z,12.73
2022-08-20T05:20:13.324Z,12.88
2022-08-20T05:25:15.829Z,14.05
2022-08-20T05:30:19.651Z,14.95
2022-08-20T05:35:23.317Z,13.43
2022-08-20T05:40:25.800Z,14.25
2022-08-20T05:45:28.686Z,14.07
2022-08-20T05:50:31.224Z,13.27
2022-08-20T05:55:33.810Z,13.00
2022-08-20T06:00:37.514Z,12.50
2022-08-20T06:05:40.123Z,11.25
2022-08-20T06:10:44.176Z,12.52
2022-08-20T06:15:46.806Z,12.85
2022-08-20T06:20:50.593Z,10.32
2022-08-20T06:25:53.342Z,11.48
2022-08-20T06:30:55.715Z,9.65
2022-08-20T06:35:58.181Z,11.32
2022-08-20T06:41:00.786Z,9.80
2022-08-20T06:46:03.239Z,10.90
2022-08-20T06:51:06.917Z,9.52
2022-08-20T06:56:09.382Z,9.05
2022-08-20T07:01:13.797Z,10.57
2022-08-20T07:06:17.042Z,10.50
2022-08-20T07:11:26.570Z,9.20
2022-08-20T07:16:30.082Z,9.40
2022-08-20T07:21:32.895Z,8.70
2022-08-20T07:26:35.539Z,8.38
2022-08-20T07:31:56.814Z,7.90
2022-08-20T07:37:00.634Z,9.18
2022-08-20T07:42:03.594Z,8.50
2022-08-20T07:47:06.604Z,9.00
2022-08-20T07:52:09.052Z,8.40
2022-08-20T07:57:12.201Z,8.32
2022-08-20T08:02:14.714Z,8.27
2022-08-20T08:07:17.727Z,9.15
2022-08-20T08:12:21.823Z,8.27
2022-08-20T08:17:24.376Z,8.27
2022-08-20T08:22:26.854Z,8.13
2022-08-20T08:27:34.391Z,7.85
2022-08-20T08:33:03.114Z,8.55
2022-08-20T08:38:05.749Z,7.78
2022-08-20T08:43:11.341Z,7.65
2022-08-20T08:48:18.653Z,8.23
2022-08-20T08:53:27.565Z,7.60
2022-08-20T08:58:30.178Z,8.43
2022-08-20T09:03:34.707Z,8.23
2022-08-20T09:08:48.065Z,9.23
2022-08-20T09:13:51.297Z,9.60
2022-08-20T09:18:53.734Z,9.55
2022-08-20T09:23:56.217Z,8.18
2022-08-20T09:28:59.453Z,10.57
2022-08-20T09:34:02.174Z,9.20
2022-08-20T09:39:04.646Z,8.43
2022-08-20T09:44:07.017Z,7.88
2022-08-20T09:49:09.469Z,8.57
2022-08-20T09:54:13.242Z,8.20
2022-08-20T09:59:16.896Z,8.40
2022-08-20T10:04:19.625Z,8.70
2022-08-20T10:09:22.069Z,10.23
2022-08-20T10:14:24.786Z,13.35
2022-08-20T10:19:28.060Z,14.18
2022-08-20T10:24:31.184Z,9.15
2022-08-20T10:29:36.845Z,7.88
2022-08-20T10:34:41.246Z,6.63
2022-08-20T10:39:43.869Z,16.10
2022-08-20T10:44:47.110Z,7.32
2022-08-20T10:49:51.772Z,7.90
2022-08-20T10:54:54.805Z,7.95
2022-08-20T10:59:59.806Z,7.60
2022-08-20T11:05:02.449Z,8.60
2022-08-20T11:10:09.323Z,8.45
2022-08-20T11:15:17.408Z,7.45
2022-08-20T11:20:21.509Z,8.65
2022-08-20T11:25:24.668Z,9.75
2022-08-20T11:30:32.639Z,9.55
2022-08-20T11:35:48.926Z,8.32
2022-08-20T11:40:52.215Z,8.52
2022-08-20T11:45:56.200Z,9.55
2022-08-20T11:50:58.657Z,9.50
2022-08-20T11:56:01.351Z,10.63
2022-08-20T12:01:03.899Z,8.27
2022-08-20T12:06:06.887Z,8.80
2022-08-20T12:11:10.160Z,9.63
2022-08-20T12:16:12.818Z,9.50
2022-08-20T12:21:15.677Z,8.48
2022-08-20T12:26:19.011Z,9.52
2022-08-20T12:31:21.498Z,19.75
2022-08-20T12:36:24.075Z,19.52
2022-08-20T12:41:26.548Z,11.43
2022-08-20T12:46:29.151Z,10.45
2022-08-20T12:51:31.620Z,17.25
2022-08-20T12:56:33.969Z,22.85
2022-08-20T13:01:36.423Z,14.82
2022-08-20T13:06:38.939Z,10.85
2022-08-20T13:11:41.792Z,12.15
2022-08-20T13:16:44.332Z,12.43
2022-08-20T13:21:46.980Z,10.93
2022-08-20T13:27:13.010Z,8.93
2022-08-20T13:32:15.620Z,9.45
2022-08-20T13:37:23.099Z,13.57
2022-08-20T13:42:28.337Z,8.75
2022-08-20T13:47:34.818Z,11.52
2022-08-20T13:52:38.150Z,21.40
2022-08-20T13:57:41.370Z,18.52
2022-08-20T14:02:44.318Z,11.38
2022-08-20T14:07:47.749Z,9.32
2022-08-20T14:12:50.319Z,9.73
2022-08-20T14:17:54.973Z,10.43
2022-08-20T14:22:58.300Z,11.18
2022-08-20T14:28:10.375Z,11.77
2022-08-20T14:33:12.870Z,9.02
2022-08-20T14:38:15.394Z,9.25
2022-08-20T14:43:17.957Z,8.27
2022-08-20T14:48:20.467Z,7.82
2022-08-20T14:55:49.222Z,10.40
2022-08-20T15:00:51.725Z,7.45
2022-08-20T15:05:54.215Z,12.32
2022-08-20T15:10:56.777Z,11.90
2022-08-20T15:15:59.260Z,14.32
2022-08-20T15:21:01.807Z,12.15
2022-08-20T15:26:05.636Z,12.35
2022-08-20T15:31:12.461Z,8.05
2022-08-20T15:36:15.104Z,7.47
2022-08-20T15:41:17.586Z,9.13
2022-08-20T15:46:20.095Z,7.65
2022-08-20T15:51:29.711Z,7.03
2022-08-20T15:56:59.739Z,11.68
2022-08-20T16:02:25.785Z,7.13
2022-08-20T16:07:58.358Z,5.80
2022-08-20T16:13:03.083Z,5.03
2022-08-20T16:18:09.432Z,5.43
2022-08-20T16:23:13.363Z,5.63
2022-08-20T16:28:28.242Z,6.35
2022-08-20T16:33:44.549Z,6.57
2022-08-20T16:39:01.394Z,9.30
2022-08-20T16:44:38.507Z,11.30
2022-08-20T16:49:47.070Z,6.90
2022-08-20T16:54:49.540Z,6.18
2022-08-20T17:00:19.177Z,5.55
2022-08-20T17:05:23.588Z,5.50
2022-08-20T17:10:30.177Z,5.40
2022-08-20T17:15:35.271Z,5.13
2022-08-20T17:20:44.959Z,4.68
2022-08-20T17:26:00.238Z,4.65
2022-08-20T17:31:03.050Z,4.78
2022-08-20T17:36:11.416Z,4.70
2022-08-20T17:41:22.090Z,5.40
2022-08-20T17:46:25.797Z,6.53
2022-08-20T17:51:33.346Z,6.22
2022-08-20T17:56:38.080Z,5.65
2022-08-20T18:01:40.595Z,4.97
2022-08-20T18:06:59.322Z,6.85
2022-08-20T18:12:37.952Z,4.88
2022-08-20T18:17:58.858Z,8.45
2022-08-20T18:23:11.244Z,6.82
2022-08-20T18:28:20.019Z,9.05
2022-08-20T18:33:48.583Z,11.18
2022-08-20T18:39:04.557Z,9.15
2022-08-20T18:44:07.115Z,7.72
2022-08-20T18:49:13.565Z,6.90
2022-08-20T18:54:29.564Z,6.50
2022-08-20T18:59:34.571Z,6.53
2022-08-20T19:04:38.149Z,6.75
2022-08-20T19:09:48.446Z,6.40
2022-08-20T19:15:13.231Z,7.00
2022-08-20T19:20:19.523Z,6.68
2022-08-20T19:25:31.018Z,6.18
2022-08-20T19:30:39.929Z,6.13
2022-08-20T19:35:42.611Z,5.88
2022-08-20T19:40:46.260Z,5.70
2022-08-20T19:45:51.793Z,5.85
2022-08-20T19:51:15.165Z,7.85
2022-08-20T19:56:21.121Z,8.00
2022-08-20T20:01:23.701Z,8.15
2022-08-20T20:06:27.162Z,9.02
2022-08-20T20:11:36.015Z,8.38
2022-08-20T20:16:39.919Z,8.93
2022-08-20T20:21:43.650Z,9.20
2022-08-20T20:26:48.099Z,9.32
2022-08-20T20:31:56.375Z,10.23
2022-08-20T20:37:13.324Z,11.05
2022-08-20T20:42:26.786Z,10.67
2022-08-20T20:47:32.479Z,11.15
2022-08-20T20:52:49.196Z,10.80
2022-08-20T20:57:52.232Z,10.27
2022-08-20T21:02:55.349Z,8.90
2022-08-20T21:08:00.808Z,8.10
2022-08-20T21:13:04.851Z,9.27
2022-08-20T21:18:09.217Z,8.25
2022-08-20T21:23:11.649Z,8.23
2022-08-20T21:28:14.120Z,7.00
2022-08-20T21:33:16.497Z,6.45
2022-08-20T21:38:19.236Z,7.57
2022-08-20T21:43:21.783Z,7.68
2022-08-20T21:48:25.793Z,6.95
2022-08-20T21:53:28.132Z,7.20
2022-08-20T21:58:30.721Z,7.78
2022-08-20T22:03:38.524Z,8.20
2022-08-20T22:08:41.660Z,8.73
2022-08-20T22:13:44.883Z,11.05
2022-08-20T22:18:48.440Z,11.73
2022-08-20T22:23:51.833Z,13.10
2022-08-20T22:28:54.366Z,14.80
2022-08-20T22:33:58.176Z,16.63
2022-08-20T22:39:02.407Z,14.52
2022-08-20T22:44:05.625Z,15.23
2022-08-20T22:49:09.775Z,14.57
2022-08-20T22:54:13.665Z,13.55
2022-08-20T22:59:16.405Z,15.82
2022-08-20T23:04:27.402Z,16.58
2022-08-20T23:09:30.563Z,12.05
2022-08-20T23:14:33.815Z,10.13
2022-08-20T23:19:37.762Z,9.23
2022-08-20T23:24:40.635Z,9.23
2022-08-20T23:29:43.448Z,7.55
2022-08-20T23:34:46.051Z,8.30
2022-08-20T23:39:50.096Z,7.32
2022-08-20T23:44:52.610Z,9.80
2022-08-20T23:49:55.058Z,8.20
2022-08-20T23:54:57.428Z,8.55
2022-08-20T23:59:59.827Z,7.85
